Time;durP1;ratioP1;P1;durP2;ratioP2;P2;SDS_P1;SDS_P2;PMS_P1;PMS_P2;Temp;Humidity;BMP_temperature;BMP_pressure;BME280_temperature;BME280_humidity;BME280_pressure;Samples;Min_cycle;Max_cycle;Signal;HPM_P1;HPM_P2
2022/09/20 00:01:51;;;;;;;8.80;8.60;;;9.80;99.90;;;;;;5154954;27;20220;-81
2022/09/20 00:04:21;;;;;;;9.20;8.90;;;9.80;99.90;;;;;;5161056;27;20196;-81
2022/09/20 00:06:50;;;;;;;8.90;8.70;;;9.70;99.90;;;;;;5160704;27;20207;-82
2022/09/20 00:09:19;;;;;;;9.30;9.00;;;9.60;99.90;;;;;;5160585;27;20234;-82
2022/09/20 00:11:51;;;;;;;9.30;9.00;;;9.70;99.90;;;;;;5159493;27;20228;-82
2022/09/20 00:14:18;;;;;;;9.40;9.10;;;9.60;99.90;;;;;;5160845;27;20197;-82
2022/09/20 00:16:48;;;;;;;9.37;9.07;;;9.60;99.90;;;;;;5160836;27;20228;-82
2022/09/20 00:19:26;;;;;;;9.40;9.10;;;9.50;99.90;;;;;;5160795;27;20212;-81
2022/09/20 00:21:54;;;;;;;9.33;9.03;;;9.50;99.90;;;;;;5161343;27;20220;-82
2022/09/20 00:24:25;;;;;;;9.60;9.30;;;9.50;99.90;;;;;;5160295;27;20217;-82
2022/09/20 00:26:56;;;;;;;9.60;9.30;;;9.40;99.90;;;;;;5160907;27;20275;-82
2022/09/20 00:29:24;;;;;;;9.50;9.20;;;9.40;99.90;;;;;;5161039;27;20280;-82
2022/09/20 00:31:53;;;;;;;9.30;9.00;;;9.50;99.90;;;;;;5160805;27;20230;-82
2022/09/20 00:37:19;;;;;;;9.27;8.97;;;9.50;99.90;;;;;;5099032;28;20202;-82
2022/09/20 00:39:48;;;;;;;9.60;9.30;;;9.40;99.90;;;;;;5145989;27;20267;-82
2022/09/20 00:42:20;;;;;;;9.40;9.10;;;9.50;99.90;;;;;;5160947;27;20212;-82
2022/09/20 00:45:06;;;;;;;9.60;9.30;;;9.50;99.90;;;;;;5160939;27;20208;-83
2022/09/20 00:47:42;;;;;;;9.50;9.20;;;9.40;99.90;;;;;;5164789;27;20302;-82
2022/09/20 00:50:25;;;;;;;9.50;9.20;;;9.40;99.90;;;;;;5164867;27;20235;-81
2022/09/20 00:52:58;;;;;;;9.43;9.13;;;9.40;99.90;;;;;;5164868;27;20208;-82
2022/09/20 00:55:28;;;;;;;9.63;9.33;;;9.40;99.90;;;;;;5161794;27;20243;-82
2022/09/20 00:58:01;;;;;;;9.70;9.40;;;9.40;99.90;;;;;;5146592;27;20247;-83
2022/09/20 01:00:29;;;;;;;9.50;9.20;;;9.40;99.90;;;;;;5145851;27;20310;-83
2022/09/20 01:03:05;;;;;;;9.50;9.20;;;9.40;99.90;;;;;;5151089;27;20235;-83
2022/09/20 01:05:35;;;;;;;9.37;9.07;;;9.40;99.90;;;;;;5147464;27;20323;-83
2022/09/20 01:08:05;;;;;;;9.40;9.10;;;9.40;99.90;;;;;;5147785;27;20280;-83
2022/09/20 01:10:33;;;;;;;9.50;9.20;;;9.40;99.90;;;;;;5158671;27;20228;-83
2022/09/20 01:13:12;;;;;;;9.50;9.20;;;9.30;99.90;;;;;;5151471;27;20288;-82
2022/09/20 01:15:42;;;;;;;9.40;9.10;;;9.30;99.90;;;;;;5144311;27;20232;-83
2022/09/20 01:18:10;;;;;;;9.20;8.90;;;9.30;99.90;;;;;;5145249;27;21045;-83
2022/09/20 01:20:42;;;;;;;9.27;8.97;;;9.30;99.90;;;;;;5145083;27;20224;-83
2022/09/20 01:23:27;;;;;;;9.43;9.13;;;9.30;99.90;;;;;;5144437;27;20262;-83
2022/09/20 01:26:43;;;;;;;9.13;8.83;;;9.30;99.90;;;;;;5144200;27;20322;-83
2022/09/20 01:29:40;;;;;;;9.37;9.07;;;9.30;99.90;;;;;;5117579;27;20296;-83
2022/09/20 01:32:16;;;;;;;9.50;9.20;;;9.30;99.90;;;;;;5144117;27;20246;-83
2022/09/20 01:34:48;;;;;;;9.50;9.20;;;9.20;99.90;;;;;;5143970;27;20236;-83
2022/09/20 01:37:24;;;;;;;9.60;9.30;;;9.20;99.90;;;;;;5144203;27;20224;-83
2022/09/20 01:40:02;;;;;;;9.53;9.23;;;9.10;99.90;;;;;;5143822;27;20242;-82
2022/09/20 01:42:41;;;;;;;9.70;9.40;;;9.10;99.90;;;;;;5144341;27;20229;-83
2022/09/20 01:45:29;;;;;;;9.30;9.00;;;9.20;99.90;;;;;;5158238;27;20220;-82
2022/09/20 01:48:09;;;;;;;9.27;8.97;;;9.20;99.90;;;;;;5145264;27;20226;-83
2022/09/20 01:51:02;;;;;;;9.50;9.20;;;9.20;99.90;;;;;;5145717;27;20235;-83
2022/09/20 01:53:57;;;;;;;9.40;9.10;;;9.20;99.90;;;;;;5144099;27;20232;-82
2022/09/20 01:56:55;;;;;;;9.30;9.00;;;9.20;99.90;;;;;;5142559;27;20331;-83
2022/09/20 02:00:01;;;;;;;9.40;9.10;;;9.20;99.90;;;;;;5144030;27;20264;-83
2022/09/20 02:03:31;;;;;;;9.60;9.30;;;9.20;99.90;;;;;;5131218;27;20227;-82
2022/09/20 02:06:18;;;;;;;9.50;9.20;;;9.20;99.90;;;;;;5141043;27;20235;-82
2022/09/20 02:09:30;;;;;;;9.60;9.30;;;9.20;99.90;;;;;;5142828;27;20243;-83
2022/09/20 02:12:27;;;;;;;9.43;9.13;;;9.30;99.90;;;;;;5145869;27;20263;-83
2022/09/20 02:15:07;;;;;;;9.20;8.90;;;9.30;99.90;;;;;;5143676;27;20281;-82
2022/09/20 02:17:50;;;;;;;9.50;9.20;;;9.30;99.90;;;;;;5144232;27;20262;-82
2022/09/20 02:20:39;;;;;;;9.40;9.10;;;9.30;99.90;;;;;;5143493;27;20216;-83
2022/09/20 02:23:43;;;;;;;9.80;9.50;;;9.30;99.90;;;;;;5143794;27;20320;-82
2022/09/20 02:26:30;;;;;;;9.70;9.40;;;9.30;99.90;;;;;;5143103;27;20238;-82
2022/09/20 02:29:14;;;;;;;9.40;9.10;;;9.30;99.90;;;;;;5143792;27;20236;-83
2022/09/20 02:32:14;;;;;;;9.63;9.33;;;9.30;99.90;;;;;;5144065;27;20236;-83
2022/09/20 02:35:34;;;;;;;9.50;9.20;;;9.30;99.90;;;;;;5143034;27;20235;-84
2022/09/20 02:38:12;;;;;;;9.90;9.60;;;9.30;99.90;;;;;;5143533;27;20235;-84
2022/09/20 02:41:08;;;;;;;9.70;9.40;;;9.30;99.90;;;;;;5143401;27;20326;-83
2022/09/20 02:43:47;;;;;;;9.90;9.60;;;9.30;99.90;;;;;;5142969;27;20677;-82
2022/09/20 02:46:24;;;;;;;10.00;9.70;;;9.30;99.90;;;;;;5142548;27;20254;-82
2022/09/20 02:49:02;;;;;;;9.73;9.43;;;9.40;99.90;;;;;;5144170;27;20222;-83
2022/09/20 02:51:41;;;;;;;9.97;9.67;;;9.40;99.90;;;;;;5143438;27;20344;-83
2022/09/20 02:54:28;;;;;;;9.90;9.60;;;9.40;99.90;;;;;;5142876;27;20231;-83
2022/09/20 02:57:07;;;;;;;9.70;9.40;;;9.40;99.90;;;;;;5143268;27;20291;-82
2022/09/20 02:59:45;;;;;;;9.53;9.23;;;9.40;99.90;;;;;;5142832;27;20234;-83
2022/09/20 03:02:24;;;;;;;9.40;9.10;;;9.40;99.90;;;;;;5142485;27;20224;-83
2022/09/20 03:05:11;;;;;;;9.30;9.00;;;9.40;99.90;;;;;;5142256;27;20278;-83
2022/09/20 03:08:05;;;;;;;9.40;9.10;;;9.50;99.90;;;;;;5141755;27;20296;-83
2022/09/20 03:10:43;;;;;;;9.60;9.30;;;9.50;99.90;;;;;;5141606;27;20235;-83
2022/09/20 03:13:43;;;;;;;9.50;9.20;;;9.50;99.90;;;;;;5142729;27;20228;-82
2022/09/20 03:16:29;;;;;;;9.40;9.10;;;9.50;99.90;;;;;;5142564;27;20296;-83
2022/09/20 03:19:13;;;;;;;9.33;9.03;;;9.50;99.90;;;;;;5153788;27;20255;-82
2022/09/20 03:21:52;;;;;;;9.50;9.20;;;9.50;99.90;;;;;;5145640;27;20307;-82
2022/09/20 03:24:39;;;;;;;9.70;9.40;;;9.60;99.90;;;;;;5144031;27;20274;-82
2022/09/20 03:27:19;;;;;;;9.47;9.17;;;9.50;99.90;;;;;;5143232;27;20228;-82
2022/09/20 03:30:06;;;;;;;9.40;9.10;;;9.50;99.90;;;;;;5143793;27;20235;-82
2022/09/20 03:32:54;;;;;;;9.80;9.50;;;9.50;99.90;;;;;;5143509;27;20358;-83
2022/09/20 03:35:50;;;;;;;9.33;9.03;;;9.50;99.90;;;;;;5142081;27;20232;-82
2022/09/20 03:38:53;;;;;;;9.30;9.00;;;9.50;99.90;;;;;;5143306;27;20343;-83
2022/09/20 03:41:51;;;;;;;9.13;8.83;;;9.60;99.90;;;;;;5143197;27;20226;-82
2022/09/20 03:44:45;;;;;;;9.20;8.90;;;9.60;99.90;;;;;;5142751;27;20243;-82
2022/09/20 03:47:41;;;;;;;8.93;8.67;;;9.60;99.90;;;;;;5142633;27;20293;-83
2022/09/20 03:50:35;;;;;;;9.07;8.77;;;9.60;99.90;;;;;;5143069;27;20322;-82
2022/09/20 03:53:51;;;;;;;8.80;8.60;;;9.60;99.90;;;;;;5142639;27;20224;-83
2022/09/20 03:56:54;;;;;;;8.70;8.50;;;9.60;99.90;;;;;;5117268;27;20370;-82
2022/09/20 03:59:43;;;;;;;9.23;8.93;;;9.50;99.90;;;;;;5143081;27;20314;-83
2022/09/20 04:02:47;;;;;;;9.13;8.83;;;9.50;99.90;;;;;;5143582;27;20238;-82
2022/09/20 04:05:19;;;;;;;9.10;8.80;;;9.50;99.90;;;;;;5141514;27;20238;-82
2022/09/20 04:08:11;;;;;;;9.17;8.87;;;9.40;99.90;;;;;;5142930;27;20293;-82
2022/09/20 04:10:57;;;;;;;8.67;8.47;;;9.40;99.90;;;;;;5143385;27;20242;-82
2022/09/20 04:13:37;;;;;;;8.60;8.40;;;9.40;99.90;;;;;;5146066;27;20227;-82
2022/09/20 04:16:25;;;;;;;8.80;8.60;;;9.30;99.90;;;;;;5143674;27;20275;-82
2022/09/20 04:19:02;;;;;;;8.63;8.43;;;9.40;99.90;;;;;;5141762;27;20224;-82
2022/09/20 04:21:39;;;;;;;9.30;9.00;;;9.40;99.90;;;;;;5141971;27;20232;-82
2022/09/20 04:24:20;;;;;;;8.80;8.60;;;9.30;99.90;;;;;;5141980;27;20232;-82
2022/09/20 04:26:56;;;;;;;9.30;9.00;;;9.30;99.90;;;;;;5141339;27;20228;-83
2022/09/20 04:29:36;;;;;;;9.10;8.80;;;9.20;99.90;;;;;;5143408;27;20307;-83
2022/09/20 04:32:16;;;;;;;9.03;8.73;;;9.20;99.90;;;;;;5144949;27;20273;-83
2022/09/20 04:37:48;;;;;;;9.23;8.93;;;9.00;99.90;;;;;;5142749;27;20220;-82
2022/09/20 04:40:34;;;;;;;9.07;8.77;;;9.00;99.90;;;;;;5142002;27;20231;-82
2022/09/20 04:43:51;;;;;;;9.30;9.00;;;9.10;99.90;;;;;;5160868;22;20234;-79
2022/09/20 04:47:16;;;;;;;9.93;9.63;;;9.10;99.90;;;;;;5120084;28;20260;-79
2022/09/20 04:50:49;;;;;;;9.80;9.50;;;9.10;99.90;;;;;;5037521;28;20233;-80
2022/09/20 04:54:04;;;;;;;9.83;9.53;;;9.10;99.90;;;;;;5064602;28;20323;-79
2022/09/20 04:56:51;;;;;;;9.93;9.63;;;9.10;99.90;;;;;;5112931;28;20232;-79
2022/09/20 04:59:37;;;;;;;10.07;9.77;;;9.00;99.90;;;;;;5120141;28;20236;-80
2022/09/20 05:02:32;;;;;;;10.07;9.77;;;9.00;99.90;;;;;;5120526;28;20231;-79
2022/09/20 05:05:55;;;;;;;9.60;9.30;;;9.00;99.90;;;;;;5119730;28;20237;-79
2022/09/20 05:09:09;;;;;;;9.73;9.43;;;9.00;99.90;;;;;;5107013;28;20244;-79
2022/09/20 05:11:55;;;;;;;9.50;9.20;;;8.90;99.90;;;;;;5120285;28;20245;-79
2022/09/20 05:14:51;;;;;;;9.43;9.13;;;8.90;99.90;;;;;;5119531;28;20288;-79
2022/09/20 05:17:56;;;;;;;9.67;9.37;;;8.90;99.90;;;;;;5120676;28;20619;-80
2022/09/20 05:20:52;;;;;;;9.30;9.00;;;8.80;99.90;;;;;;5120250;28;20247;-81
2022/09/20 05:24:23;;;;;;;9.33;9.03;;;8.80;99.90;;;;;;5113153;28;20235;-81
2022/09/20 05:27:11;;;;;;;9.30;9.00;;;8.70;99.90;;;;;;5103669;28;20236;-81
2022/09/20 05:29:49;;;;;;;9.27;8.97;;;8.60;99.90;;;;;;5115198;27;20235;-81
2022/09/20 05:32:29;;;;;;;9.50;9.20;;;8.60;99.90;;;;;;5128588;28;20236;-81
2022/09/20 05:35:06;;;;;;;9.13;8.83;;;8.60;99.90;;;;;;5124931;28;20231;-81
2022/09/20 05:37:46;;;;;;;9.37;9.07;;;8.60;99.90;;;;;;5125729;28;20228;-81
2022/09/20 05:40:31;;;;;;;9.23;8.93;;;8.60;99.90;;;;;;5134308;28;20236;-81
2022/09/20 05:43:10;;;;;;;9.40;9.10;;;8.60;99.90;;;;;;5130661;28;20266;-81
2022/09/20 05:45:57;;;;;;;9.30;9.00;;;8.60;99.90;;;;;;5123699;28;20283;-81
2022/09/20 05:48:43;;;;;;;9.53;9.23;;;8.70;99.90;;;;;;5124379;28;20335;-81
2022/09/20 05:51:41;;;;;;;8.97;8.67;;;8.70;99.90;;;;;;5124165;28;20229;-80
2022/09/20 05:54:53;;;;;;;9.10;8.80;;;8.80;99.90;;;;;;5123641;28;20258;-81
2022/09/20 06:04:26;;;;;;;9.50;9.20;;;9.10;99.90;;;;;;5119270;28;20229;-85
2022/09/20 06:07:13;;;;;;;9.60;9.30;;;9.20;99.90;;;;;;5125196;28;20331;-85
2022/09/20 06:10:46;;;;;;;9.13;8.83;;;9.40;99.90;;;;;;5124230;28;20253;-84
2022/09/20 06:14:15;;;;;;;9.13;8.83;;;9.50;99.90;;;;;;5075314;28;20224;-85
2022/09/20 06:17:03;;;;;;;9.50;9.20;;;9.40;99.90;;;;;;5125250;28;20291;-85
2022/09/20 06:19:41;;;;;;;9.40;9.10;;;9.40;99.90;;;;;;5124957;28;20228;-85
2022/09/20 06:25:15;;;;;;;9.23;8.93;;;9.50;99.90;;;;;;5122345;27;20233;-84
2022/09/20 06:27:52;;;;;;;9.23;8.93;;;9.60;99.90;;;;;;5118607;28;20236;-85
2022/09/20 06:30:31;;;;;;;9.30;9.00;;;9.70;99.90;;;;;;5122605;28;20264;-85
2022/09/20 06:33:00;;;;;;;9.20;8.90;;;9.80;99.90;;;;;;5124525;28;20802;-84
2022/09/20 06:35:39;;;;;;;9.23;8.93;;;9.80;99.90;;;;;;5124306;28;20269;-85
2022/09/20 06:41:37;;;;;;;9.27;8.97;;;9.80;99.90;;;;;;5103644;28;20273;-85
2022/09/20 06:44:11;;;;;;;8.60;8.40;;;9.80;99.90;;;;;;5123712;28;20244;-84
2022/09/20 06:46:45;;;;;;;9.10;8.80;;;9.80;99.90;;;;;;5123529;28;20219;-85
2022/09/20 06:49:15;;;;;;;9.23;8.93;;;9.70;99.90;;;;;;5123990;28;20235;-85
2022/09/20 06:51:45;;;;;;;9.20;8.90;;;9.80;99.90;;;;;;5124227;28;20229;-84
2022/09/20 06:57:12;;;;;;;9.30;9.00;;;9.90;99.90;;;;;;5124756;28;20232;-85
2022/09/20 06:59:39;;;;;;;9.40;9.10;;;9.90;99.90;;;;;;5123569;28;20246;-85
2022/09/20 07:02:10;;;;;;;9.17;8.87;;;9.90;99.90;;;;;;5123526;28;20285;-85
2022/09/20 07:04:46;;;;;;;9.00;8.70;;;10.00;99.90;;;;;;5123799;28;20284;-84
2022/09/20 07:07:25;;;;;;;9.20;8.90;;;10.00;99.90;;;;;;5125136;28;20216;-85
2022/09/20 07:09:53;;;;;;;9.33;9.03;;;10.10;99.90;;;;;;5125344;28;20229;-85
2022/09/20 07:12:32;;;;;;;9.40;9.10;;;10.20;99.90;;;;;;5124414;28;20241;-85
2022/09/20 07:15:01;;;;;;;9.40;9.10;;;10.20;99.90;;;;;;5123651;28;20236;-85
2022/09/20 07:17:57;;;;;;;9.40;9.10;;;10.30;99.90;;;;;;5123579;28;20228;-84
2022/09/20 07:20:27;;;;;;;9.40;9.10;;;10.40;99.90;;;;;;5123607;28;20241;-84
2022/09/20 07:23:07;;;;;;;9.47;9.17;;;10.30;99.90;;;;;;5123298;28;20256;-84
2022/09/20 07:25:36;;;;;;;9.50;9.20;;;10.40;99.90;;;;;;5090427;28;20225;-85
2022/09/20 07:28:06;;;;;;;9.40;9.10;;;10.50;99.90;;;;;;5102078;28;20226;-84
2022/09/20 07:30:37;;;;;;;9.67;9.37;;;10.50;99.90;;;;;;5102697;28;20264;-85
2022/09/20 07:36:00;;;;;;;9.63;9.33;;;10.70;99.90;;;;;;5103070;28;20245;-85
2022/09/20 07:38:32;;;;;;;9.70;9.40;;;10.70;99.90;;;;;;5113751;28;20225;-84
2022/09/20 07:43:49;;;;;;;9.60;9.30;;;10.80;99.90;;;;;;5124312;27;20260;-85
2022/09/20 07:46:22;;;;;;;9.87;9.57;;;10.80;99.90;;;;;;5124668;28;20247;-85
2022/09/20 07:48:56;;;;;;;9.60;9.30;;;10.80;99.90;;;;;;5126758;28;20245;-85
2022/09/20 07:51:24;;;;;;;9.50;9.20;;;11.00;99.90;;;;;;5129380;28;20282;-85
2022/09/20 07:53:55;;;;;;;9.70;9.40;;;10.90;99.90;;;;;;5127306;28;20236;-86
2022/09/20 07:56:31;;;;;;;9.63;9.33;;;11.10;99.90;;;;;;5126345;28;20236;-84
2022/09/20 07:59:19;;;;;;;9.50;9.20;;;11.30;99.90;;;;;;5126267;28;20272;-86
2022/09/20 08:01:47;;;;;;;9.70;9.40;;;11.40;99.90;;;;;;5127952;28;20240;-83
2022/09/20 08:04:38;;;;;;;9.10;8.80;;;11.50;99.90;;;;;;5125058;28;20228;-86
2022/09/20 08:07:05;;;;;;;9.23;8.93;;;11.50;99.90;;;;;;5123076;28;20220;-86
2022/09/20 08:09:33;;;;;;;9.40;9.10;;;11.50;99.90;;;;;;5123408;28;20231;-86
2022/09/20 08:12:04;;;;;;;9.50;9.20;;;11.60;99.90;;;;;;5123660;28;20311;-86
2022/09/20 08:14:32;;;;;;;9.40;9.10;;;11.70;99.90;;;;;;5122900;28;20240;-86
2022/09/20 08:17:03;;;;;;;9.37;9.07;;;11.70;99.90;;;;;;5123634;28;20247;-86
2022/09/20 08:19:33;;;;;;;9.70;9.40;;;11.80;99.90;;;;;;5125574;28;20241;-86
2022/09/20 08:22:01;;;;;;;9.80;9.50;;;11.90;99.90;;;;;;5131072;28;20225;-85
2022/09/20 08:24:31;;;;;;;9.37;9.07;;;11.90;99.90;;;;;;5125776;28;20232;-85
2022/09/20 08:26:59;;;;;;;9.70;9.40;;;12.10;99.90;;;;;;5129073;28;20298;-86
2022/09/20 08:29:29;;;;;;;9.70;9.40;;;12.30;99.90;;;;;;5126910;28;20233;-86
2022/09/20 08:32:02;;;;;;;10.10;9.80;;;12.40;99.90;;;;;;5124863;28;20236;-86
2022/09/20 08:34:31;;;;;;;9.63;9.33;;;12.10;99.90;;;;;;5123947;28;20259;-86
2022/09/20 08:36:59;;;;;;;9.50;9.20;;;11.90;99.90;;;;;;5124345;28;20336;-86
2022/09/20 08:39:26;;;;;;;9.87;9.57;;;11.80;99.90;;;;;;5124201;28;20312;-87
2022/09/20 08:41:58;;;;;;;9.20;8.90;;;11.80;99.90;;;;;;5123034;28;20263;-86
2022/09/20 08:44:34;;;;;;;9.50;9.20;;;11.80;99.90;;;;;;5122644;28;20348;-85
2022/09/20 08:47:15;;;;;;;9.33;9.03;;;11.80;99.90;;;;;;5123099;28;20234;-86
2022/09/20 08:49:44;;;;;;;9.60;9.30;;;11.80;99.90;;;;;;5122927;28;20280;-86
2022/09/20 08:52:20;;;;;;;9.60;9.30;;;11.80;99.90;;;;;;5123533;28;20260;-86
2022/09/20 08:54:49;;;;;;;9.57;9.27;;;11.80;99.90;;;;;;5122375;28;20240;-86
2022/09/20 08:57:20;;;;;;;9.60;9.30;;;11.80;99.90;;;;;;5123241;28;20233;-86
2022/09/20 09:02:35;;;;;;;9.60;9.30;;;11.90;99.90;;;;;;5123915;28;20213;-86
2022/09/20 09:05:34;;;;;;;9.77;9.47;;;12.00;99.90;;;;;;5122222;27;20716;-87
2022/09/20 09:08:10;;;;;;;9.53;9.23;;;12.00;99.90;;;;;;5126405;28;20294;-86
2022/09/20 09:10:40;;;;;;;10.00;9.70;;;12.10;99.90;;;;;;5126715;28;20759;-86
2022/09/20 09:13:08;;;;;;;9.87;9.57;;;12.10;99.90;;;;;;5126965;28;20232;-86
2022/09/20 09:15:38;;;;;;;9.70;9.40;;;12.40;99.90;;;;;;5128848;28;20288;-85
2022/09/20 09:18:16;;;;;;;9.77;9.47;;;12.60;99.90;;;;;;5127055;28;20221;-85
2022/09/20 09:20:54;;;;;;;9.40;9.10;;;12.90;99.90;;;;;;5125564;28;20274;-86
2022/09/20 09:23:26;;;;;;;9.40;9.10;;;13.10;99.90;;;;;;5124617;28;20228;-87
2022/09/20 09:25:55;;;;;;;9.20;8.90;;;13.20;99.90;;;;;;5124701;28;20233;-86
2022/09/20 09:28:28;;;;;;;9.00;8.80;;;12.90;99.90;;;;;;5124605;28;20237;-86
2022/09/20 09:31:14;;;;;;;9.20;8.90;;;12.40;99.90;;;;;;5125242;28;20221;-86
2022/09/20 09:33:51;;;;;;;9.33;9.03;;;12.20;99.90;;;;;;5125814;28;20296;-85
2022/09/20 09:36:32;;;;;;;9.23;8.93;;;12.00;99.90;;;;;;5125478;28;20284;-86
2022/09/20 09:39:26;;;;;;;9.30;9.00;;;11.80;99.90;;;;;;5126515;28;20240;-86
2022/09/20 09:41:55;;;;;;;9.60;9.30;;;11.70;99.90;;;;;;5126390;28;20235;-86
2022/09/20 09:44:26;;;;;;;9.50;9.20;;;11.60;99.90;;;;;;5126214;28;20340;-85
2022/09/20 09:46:55;;;;;;;9.20;8.90;;;11.50;99.90;;;;;;5126977;28;20236;-85
2022/09/20 09:52:23;;;;;;;9.50;9.20;;;11.60;99.90;;;;;;5126275;28;20284;-86
2022/09/20 09:54:57;;;;;;;9.10;8.83;;;11.90;99.90;;;;;;5126021;28;20323;-86
2022/09/20 09:57:42;;;;;;;9.07;8.80;;;12.30;99.90;;;;;;5126903;28;20313;-86
2022/09/20 10:00:12;;;;;;;9.50;9.20;;;12.80;99.90;;;;;;5127291;28;20245;-83
2022/09/20 10:03:25;;;;;;;9.40;9.10;;;13.30;99.90;;;;;;5126621;28;20270;-85
2022/09/20 10:06:12;;;;;;;9.47;9.17;;;13.50;99.90;;;;;;5092430;28;20232;-85
2022/09/20 10:09:18;;;;;;;9.10;8.80;;;13.20;99.90;;;;;;5126838;28;20270;-86
2022/09/20 10:12:13;;;;;;;9.60;9.30;;;12.80;99.90;;;;;;5127118;28;20228;-86
2022/09/20 10:15:09;;;;;;;9.40;9.10;;;12.10;99.90;;;;;;5126179;28;20240;-86
2022/09/20 10:17:57;;;;;;;9.50;9.20;;;11.70;99.90;;;;;;5125280;28;20229;-86
2022/09/20 10:20:52;;;;;;;9.60;9.30;;;11.60;99.90;;;;;;5126349;28;20233;-86
2022/09/20 10:23:40;;;;;;;9.20;8.90;;;11.60;99.90;;;;;;5126364;28;20216;-85
2022/09/20 10:26:27;;;;;;;9.33;9.03;;;12.00;99.90;;;;;;5125642;28;20260;-86
2022/09/20 10:29:07;;;;;;;9.10;8.80;;;12.50;99.90;;;;;;5125098;28;20237;-85
2022/09/20 10:31:51;;;;;;;9.30;9.00;;;12.70;99.90;;;;;;5125140;28;20322;-86
2022/09/20 10:34:50;;;;;;;8.97;8.77;;;12.80;99.90;;;;;;5124598;28;20231;-85
2022/09/20 10:37:35;;;;;;;8.30;8.10;;;12.80;99.90;;;;;;5139766;28;20247;-86
2022/09/20 10:40:23;;;;;;;8.50;8.30;;;12.50;99.90;;;;;;5128241;28;20321;-87
2022/09/20 10:43:15;;;;;;;8.37;8.17;;;12.40;99.90;;;;;;5121708;28;20225;-88
2022/09/20 10:45:53;;;;;;;8.70;8.50;;;12.40;99.90;;;;;;5169494;22;20234;-83
2022/09/20 10:48:29;;;;;;;9.17;8.87;;;12.60;99.90;;;;;;5104262;28;20217;-85
2022/09/20 10:51:02;;;;;;;9.70;9.40;;;12.90;99.90;;;;;;5103832;28;20260;-83
2022/09/20 10:53:41;;;;;;;10.17;9.87;;;13.50;99.90;;;;;;5116026;28;20235;-84
2022/09/20 10:56:25;;;;;;;10.10;9.80;;;14.10;99.90;;;;;;5103426;28;20222;-82
2022/09/20 10:59:25;;;;;;;10.00;9.70;;;14.80;99.90;;;;;;5105724;28;20218;-82
2022/09/20 11:02:25;;;;;;;10.50;10.20;;;15.50;99.90;;;;;;5108965;28;20234;-82
2022/09/20 11:05:26;;;;;;;10.40;10.10;;;15.70;99.90;;;;;;5091538;28;20297;-82
2022/09/20 11:08:07;;;;;;;10.40;10.10;;;15.50;99.90;;;;;;5083246;28;20252;-84
2022/09/20 11:10:41;;;;;;;10.15;9.85;;;16.00;99.90;;;;;;5084291;28;20253;-84
2022/09/20 11:13:21;;;;;;;10.15;9.85;;;16.70;99.90;;;;;;5082631;28;20229;-84
2022/09/20 11:15:59;;;;;;;10.20;9.90;;;16.60;99.90;;;;;;5082754;28;20301;-84
2022/09/20 11:18:37;;;;;;;9.98;9.68;;;16.20;99.90;;;;;;5083191;28;20240;-83
2022/09/20 11:21:13;;;;;;;10.10;9.80;;;15.50;99.90;;;;;;5082517;28;20214;-84
2022/09/20 11:23:51;;;;;;;9.82;9.52;;;15.00;99.90;;;;;;5083835;28;20229;-83
2022/09/20 11:26:34;;;;;;;10.25;9.95;;;14.80;99.90;;;;;;5083943;28;20258;-85
2022/09/20 11:29:18;;;;;;;9.70;9.40;;;15.00;99.90;;;;;;5083940;28;20240;-83
2022/09/20 11:32:08;;;;;;;9.93;9.63;;;15.20;99.90;;;;;;5080899;28;20237;-83
2022/09/20 11:34:47;;;;;;;9.97;9.67;;;15.10;99.90;;;;;;5083139;28;20238;-83
2022/09/20 11:37:17;;;;;;;9.90;9.60;;;15.10;99.90;;;;;;5085888;28;20281;-82
2022/09/20 11:39:51;;;;;;;10.00;9.70;;;15.20;99.90;;;;;;5085448;28;20225;-83
2022/09/20 11:42:22;;;;;;;10.27;9.98;;;15.50;99.90;;;;;;5083908;28;20230;-83
2022/09/20 11:44:51;;;;;;;9.95;9.65;;;16.00;99.90;;;;;;5083523;28;20238;-82
2022/09/20 11:47:26;;;;;;;10.13;9.82;;;16.60;99.90;;;;;;5083958;28;20237;-82
2022/09/20 11:50:34;;;;;;;10.30;10.00;;;17.40;99.90;;;;;;5082946;28;20287;-82
2022/09/20 11:53:19;;;;;;;10.10;9.80;;;17.40;99.90;;;;;;5083302;28;20230;-82
2022/09/20 11:55:52;;;;;;;10.32;10.02;;;17.00;99.90;;;;;;5083161;28;20237;-83
2022/09/20 11:58:21;;;;;;;10.38;10.07;;;16.40;99.90;;;;;;5087913;28;20283;-83
2022/09/20 12:00:53;;;;;;;10.10;9.80;;;15.40;99.90;;;;;;5102794;28;20237;-83
2022/09/20 12:03:36;;;;;;;10.50;10.20;;;15.40;99.90;;;;;;5104588;28;20225;-84
2022/09/20 12:06:07;;;;;;;10.40;10.10;;;15.30;99.90;;;;;;5105548;28;20268;-83
2022/09/20 12:08:46;;;;;;;10.20;9.90;;;14.90;99.90;;;;;;5105274;28;20233;-83
2022/09/20 12:11:17;;;;;;;10.30;10.00;;;14.90;99.90;;;;;;5105481;28;20217;-82
2022/09/20 12:13:55;;;;;;;10.02;9.73;;;15.30;99.90;;;;;;5106101;28;20252;-81
2022/09/20 12:16:40;;;;;;;10.03;9.73;;;15.10;99.90;;;;;;5107206;28;20282;-82
2022/09/20 12:19:12;;;;;;;10.27;9.98;;;15.00;99.90;;;;;;5108195;28;20237;-80
2022/09/20 12:22:28;;;;;;;10.13;9.83;;;15.10;99.90;;;;;;5111596;28;20233;-80
2022/09/20 12:25:59;;;;;;;10.10;9.80;;;15.30;99.90;;;;;;5112373;28;21028;-81
2022/09/20 12:28:34;;;;;;;10.10;9.80;;;15.40;99.90;;;;;;5053404;28;20266;-80
2022/09/20 12:31:40;;;;;;;10.30;10.00;;;14.90;99.90;;;;;;5084316;28;20318;-80
2022/09/20 12:34:36;;;;;;;10.52;10.23;;;14.70;99.90;;;;;;5073641;28;20219;-80
2022/09/20 12:37:26;;;;;;;10.23;9.93;;;15.30;99.90;;;;;;5073471;28;20206;-81
2022/09/20 12:39:56;;;;;;;10.27;9.98;;;15.10;99.90;;;;;;5075388;28;20277;-80
2022/09/20 12:42:32;;;;;;;10.15;9.85;;;15.40;99.90;;;;;;5077617;28;20270;-80
2022/09/20 12:45:07;;;;;;;10.43;10.13;;;15.80;99.90;;;;;;5077216;28;20305;-81
2022/09/20 12:47:41;;;;;;;10.30;10.00;;;16.20;99.90;;;;;;5077574;28;20261;-81
2022/09/20 12:53:07;;;;;;;9.77;9.48;;;16.90;99.90;;;;;;5079459;28;20226;-82
2022/09/20 12:55:45;;;;;;;9.90;9.60;;;16.40;99.90;;;;;;5079055;28;20260;-82
2022/09/20 12:58:50;;;;;;;10.00;9.70;;;16.30;99.90;;;;;;5076054;28;20231;-81
2022/09/20 13:01:39;;;;;;;10.10;9.80;;;15.90;99.90;;;;;;5069431;28;20234;-81
2022/09/20 13:05:05;;;;;;;9.73;9.43;;;16.00;99.90;;;;;;5069196;28;20226;-81
2022/09/20 13:08:19;;;;;;;9.90;9.60;;;16.00;99.90;;;;;;5066277;28;20242;-82
2022/09/20 13:11:01;;;;;;;10.25;9.95;;;15.80;99.90;;;;;;5065166;28;20273;-81
2022/09/20 13:13:34;;;;;;;10.10;9.80;;;15.50;99.90;;;;;;5066299;28;20262;-80
2022/09/20 13:16:05;;;;;;;10.82;10.52;;;16.00;99.90;;;;;;5065911;28;20281;-81
2022/09/20 13:18:46;;;;;;;10.68;10.38;;;16.60;99.90;;;;;;5066789;28;20225;-82
2022/09/20 13:21:14;;;;;;;10.90;10.60;;;17.30;99.90;;;;;;5073666;28;20198;-81
2022/09/20 13:24:03;;;;;;;10.68;10.38;;;17.80;99.90;;;;;;5083203;28;20219;-83
2022/09/20 13:26:39;;;;;;;11.07;10.77;;;17.70;99.90;;;;;;5083002;28;20215;-81
2022/09/20 13:29:11;;;;;;;11.07;10.77;;;18.00;99.90;;;;;;5082789;28;20238;-82
2022/09/20 13:31:40;;;;;;;11.07;10.77;;;18.20;99.90;;;;;;5083004;28;20238;-82
2022/09/20 13:34:27;;;;;;;10.60;10.30;;;18.70;99.90;;;;;;5082031;28;20287;-82
2022/09/20 13:36:59;;;;;;;10.93;10.63;;;19.10;99.90;;;;;;5093269;28;20233;-80
2022/09/20 13:39:36;;;;;;;10.30;10.00;;;19.30;99.90;;;;;;5122551;28;20274;-81
2022/09/20 13:42:10;;;;;;;10.07;9.77;;;19.30;99.90;;;;;;5122308;28;20217;-81
2022/09/20 13:44:45;;;;;;;10.13;9.82;;;19.40;99.90;;;;;;5122718;28;20318;-83
2022/09/20 13:47:33;;;;;;;10.13;9.82;;;19.50;99.90;;;;;;5123859;28;20247;-83
2022/09/20 13:50:02;;;;;;;10.15;9.85;;;19.80;99.90;;;;;;5123056;28;20233;-82
2022/09/20 13:52:37;;;;;;;10.20;9.90;;;19.50;99.90;;;;;;5122137;28;20243;-83
2022/09/20 13:58:20;;;;;;;10.75;10.45;;;19.50;99.90;;;;;;5198591;27;20526;-84
2022/09/20 14:00:51;;;;;;;10.98;10.68;;;19.30;99.90;;;;;;5174492;27;20255;-82
2022/09/20 14:03:21;;;;;;;10.80;10.50;;;19.30;99.90;;;;;;5159120;27;20239;-83
2022/09/20 14:05:51;;;;;;;10.70;10.40;;;18.90;99.90;;;;;;5161621;27;20223;-84
2022/09/20 14:08:28;;;;;;;10.65;10.35;;;18.20;99.90;;;;;;5162747;27;20235;-84
2022/09/20 14:11:07;;;;;;;10.30;10.00;;;18.10;99.90;;;;;;5160943;27;20245;-86
2022/09/20 14:13:43;;;;;;;10.68;10.38;;;17.80;99.90;;;;;;5139963;27;20220;-84
2022/09/20 14:16:12;;;;;;;10.77;10.48;;;17.20;99.90;;;;;;5139082;27;20226;-85
2022/09/20 14:18:42;;;;;;;10.90;10.60;;;17.10;99.90;;;;;;5139226;27;20251;-82
2022/09/20 14:21:11;;;;;;;10.70;10.40;;;17.00;99.90;;;;;;5138596;27;20251;-82
2022/09/20 14:23:51;;;;;;;10.20;9.90;;;17.30;99.90;;;;;;5140839;27;20291;-82
2022/09/20 14:26:28;;;;;;;9.77;9.48;;;17.80;99.90;;;;;;5159540;27;20307;-82
2022/09/20 14:29:41;;;;;;;9.80;9.50;;;17.80;99.90;;;;;;5155627;27;20238;-83
2022/09/20 14:32:38;;;;;;;9.90;9.60;;;17.50;99.90;;;;;;5161006;27;20284;-81
2022/09/20 14:35:15;;;;;;;10.32;10.02;;;17.00;99.90;;;;;;5152799;27;20231;-82
2022/09/20 14:37:46;;;;;;;10.18;9.88;;;17.20;99.90;;;;;;5159610;27;20231;-82
2022/09/20 14:40:32;;;;;;;10.70;10.40;;;17.20;99.90;;;;;;5160001;27;20270;-82
2022/09/20 14:43:02;;;;;;;10.80;10.50;;;17.30;99.90;;;;;;5159735;27;20258;-83
2022/09/20 14:45:41;;;;;;;10.63;10.32;;;17.80;99.90;;;;;;5159272;27;20314;-83